Appleton, Wisconsin
Current Conditions -  °F | °C
As of 5:22 AM on Friday 31 Oct 2014 (Local Time) from KATW Reporting Station
Overcast Overcast  
Wind Chill: -5°   Ceiling: 3500
Heat Index:   Visibility: 10mi
Dew Point: -3°   Wind: 24mph
Humidity: 70%   Direction: 350°N
Pressure: 30.14"   Gusts: 30mph
Location:  44.26°N, 88.42°W
Report Text: KATW 311022Z 35021G26KT 10SM OVC035 02/M03 A3014 RMK FIRST
Loading
Personal Weather Stations






























Interactive Weather Map
Tropical Storm Tracking
New forecast layout! Learn more

10-Day Weather Forecast

Advertisements
Track Severe Weather on mobile